Flight Track Log - Related Links

Times and Time Zones

All times are in EST time to prevent confusion due to time zone crossing. See the N400PU flight status page for this flight to view local times or setup timezone preferences in your user account.

Time Position Orientation Groundspeed Altitude Reporting Facility
EST Latitude Longitude Course Direction KTS MPH feet Rate Location/Type
Tue 05:29:34 PM 41.4319 -90.5636 172° South 165 190 3,900  Level Chicago Center
Tue 05:30:36 PM 41.3747 -90.5531 172° South 282 325 7,000 3,048 Climbing Chicago Center
Tue 05:31:38 PM 41.3467 -90.4472 109° East 306 352 10,200 2,806 Climbing Chicago Center
Tue 05:32:40 PM 41.3067 -90.2958 109° East 367 422 12,800 2,274 Climbing Chicago Center
Tue 05:33:42 PM 41.2714 -90.1511 108° East 404 465 14,900 1,839 Climbing Chicago Center
Tue 05:34:44 PM 41.2342 -89.9972 108° East 431 496 16,600 1,104 Climbing Chicago Center
Tue 05:35:47 PM 41.1931 -89.8364 109° East 453 521 17,200 288 Climbing Chicago Center
Tue 05:36:49 PM 41.1525 -89.6756 108° East 457 526 17,200  Level Chicago Center
Tue 05:37:51 PM 41.1131 -89.5183 108° East 449 517 17,200  Level Chicago Center
Tue 05:38:53 PM 41.0733 -89.3639 109° East 442 509 17,200  Level Chicago Center
Tue 05:39:55 PM 41.0292 -89.1953 109° East 442 509 17,200  Level Chicago Center
Tue 05:40:57 PM 40.9833 -89.0239 109° East 443 510 17,200  Level Chicago Center
Tue 05:41:59 PM 40.9433 -88.8689 109° East 443 510 17,200 -48 Level Chicago Center
Tue 05:43:01 PM 40.9000 -88.7078 110° East 442 509 17,100 -48 Descending Chicago Center
Tue 05:44:03 PM 40.8592 -88.5544 109° East 444 511 17,100  Level Chicago Center
Tue 05:45:06 PM 40.8192 -88.4008 109° East 446 513 17,100 -192 Level Chicago Center
Tue 05:46:08 PM 40.7775 -88.2494 110° East 445 512 16,700 -1,065 Descending Chicago Center
Tue 05:47:10 PM 40.7292 -88.0697 109° East 439 505 14,900 -1,597 Descending Chicago Center
Tue 05:48:12 PM 40.6886 -87.9219 110° East 435 501 13,400 -1,210 Descending Chicago Center
Tue 05:49:14 PM 40.6503 -87.7769 109° East 426 490 12,400 -1,008 Descending Chicago Center
Tue 05:50:17 PM 40.6106 -87.6364 110° East 417 480 11,300 -1,234 Descending Chicago Center
Tue 05:51:01 PM 40.5786 -87.5250 111° Southeast 358 412 10,200 -1,279 Descending Chicago Center
Tue 05:51:18 PM 40.5703 -87.4867 106° East 359 413 10,000 -1,592 Descending Chicago Center
Tue 05:51:50 PM 40.5533 -87.4356 114° Southeast 319 367 8,900 -2,032 Descending Chicago Center
Tue 05:52:20 PM 40.5417 -87.3825 106° East 313 360 7,900 -1,700 Descending Chicago Center
Tue 05:52:50 PM 40.5367 -87.3331 98° East 286 329 7,200 -1,452 Descending Chicago Center
Tue 05:53:22 PM 40.5325 -87.2767 96° East 294 338 6,400 -1,574 Descending Chicago Center
Tue 05:53:51 PM 40.5244 -87.2256 102° East 285 328 5,600 -1,429 Descending Chicago Center
Tue 05:54:25 PM 40.5203 -87.1719 96° East 294 338 4,900 -1,556 Descending Chicago Center
Tue 05:54:45 PM 40.5136 -87.1317 102° East 296 341 4,200 -1,258 Descending Chicago Center
Tue 05:55:27 PM 40.5086 -87.0664 96° East 294 338 3,600 -1,082 Descending Chicago Center
Tue 05:55:46 PM 40.5017 -87.0186 101° East 295 339 3,100 -581 Descending Chicago Center
Tue 05:56:29 PM 40.4953 -86.9456 97° East 293 337 3,000 -98 Descending Chicago Center
Tue 05:56:47 PM 40.4908 -86.9167 101° East 294 338 3,000 -97 Level Chicago Center
Tue 05:57:31 PM 40.4844 -86.8478 97° East 287 330 2,900 -300 Descending Chicago Center
Tue 05:57:47 PM 40.4753 -86.8339 131° Southeast 207 238 2,700  Descending Chicago Center
Tue 05:58:33 PM 40.4711 -86.7653 95° East 278 320 2,900 -492 Climbing Chicago Center
Tue 05:58:48 PM 40.4336 -86.8311 233° Southwest 126 145 2,200 -880 Descending Chicago Center
Tue 05:59:48 PM 40.4117 -86.8597 225° Southwest 105 121 1,800 -446 Descending Chicago Center
Tue 06:00:49 PM 40.4042 -86.8947 254° West 109 125 1,300 -492 Descending Chicago Center

Login

Don't have an account? Register now (free) for customized features, flight alerts, and more!